createdAt,value
2022-11-29T00:00:55.445Z,101313.81
2022-11-29T00:03:58.882Z,101306.84
2022-11-29T00:19:55.168Z,101286.19
2022-11-29T00:22:58.453Z,101277.84
2022-11-29T00:26:06.648Z,101276.66
2022-11-29T00:29:12.379Z,101274.25
2022-11-29T00:32:15.696Z,101276.81
2022-11-29T00:35:19.006Z,101270.91
2022-11-29T00:38:21.509Z,101262.44
2022-11-29T00:41:25.216Z,101263.06
2022-11-29T00:44:28.200Z,101270.53
2022-11-29T00:47:31.189Z,101264.75
2022-11-29T00:50:33.855Z,101271.19
2022-11-29T00:53:38.033Z,101265.16
2022-11-29T00:56:40.453Z,101270.78
2022-11-29T00:59:44.554Z,101262.31
2022-11-29T01:02:48.687Z,101263.34
2022-11-29T01:05:53.434Z,101263.47
2022-11-29T01:08:56.057Z,101256.94
2022-11-29T01:11:58.739Z,101268.47
2022-11-29T01:15:01.186Z,101269.66
2022-11-29T01:18:05.089Z,101253.34
2022-11-29T01:21:17.389Z,101253.72
2022-11-29T01:24:22.188Z,101254.37
2022-11-29T01:27:25.023Z,101254.63
2022-11-29T01:30:28.146Z,101252.97
2022-11-29T01:33:30.830Z,101251.16
2022-11-29T01:36:34.561Z,101257.44
2022-11-29T01:39:37.859Z,101245.50
2022-11-29T01:42:40.582Z,101250.78
2022-11-29T01:45:45.570Z,101245.38
2022-11-29T01:48:51.324Z,101246.16
2022-11-29T01:52:00.032Z,101248.47
2022-11-29T01:55:07.750Z,101252.69
2022-11-29T01:58:10.954Z,101253.72
2022-11-29T02:01:15.129Z,101246.94
2022-11-29T02:04:19.319Z,101248.97
2022-11-29T02:07:22.333Z,101252.97
2022-11-29T02:10:49.157Z,101255.25
2022-11-29T02:14:37.588Z,101254.75
2022-11-29T02:18:27.210Z,101251.28
2022-11-29T02:21:42.238Z,101254.88
2022-11-29T02:25:08.077Z,101262.56
2022-11-29T02:28:42.103Z,101265.50
2022-11-29T02:32:36.708Z,101267.31
2022-11-29T02:36:23.724Z,101267.97
2022-11-29T02:39:35.086Z,101268.88
2022-11-29T02:43:07.262Z,101274.37
2022-11-29T02:46:39.603Z,101262.44
2022-11-29T02:49:58.594Z,101262.97
2022-11-29T02:53:23.682Z,101264.13
2022-11-29T02:56:34.639Z,101270.78
2022-11-29T03:00:03.402Z,101264.63
2022-11-29T03:03:17.899Z,101265.25
2022-11-29T03:06:44.210Z,101261.56
2022-11-29T03:10:04.969Z,101264.00
2022-11-29T03:13:22.526Z,101266.66
2022-11-29T03:16:51.039Z,101260.78
2022-11-29T03:20:20.565Z,101264.22
2022-11-29T03:23:28.920Z,101270.78
2022-11-29T03:26:43.336Z,101258.06
2022-11-29T03:29:57.853Z,101265.78
2022-11-29T03:33:16.945Z,101270.78
2022-11-29T03:36:44.943Z,101271.78
2022-11-29T03:39:59.780Z,101268.38
2022-11-29T03:43:10.962Z,101279.41
2022-11-29T03:46:35.390Z,101286.44
2022-11-29T03:49:54.676Z,101281.31
2022-11-29T03:53:13.154Z,101291.84
2022-11-29T03:56:23.092Z,101288.78
2022-11-29T03:59:50.637Z,101288.00
2022-11-29T04:03:18.449Z,101296.47
2022-11-29T04:07:00.932Z,101285.69
2022-11-29T04:10:23.192Z,101299.41
2022-11-29T04:13:49.295Z,101302.19
2022-11-29T04:17:24.321Z,101306.16
2022-11-29T04:20:39.080Z,101312.69
2022-11-29T04:24:13.893Z,101309.50
2022-11-29T04:27:31.038Z,101314.53
2022-11-29T04:31:01.697Z,101316.66
2022-11-29T04:34:38.675Z,101317.06
2022-11-29T04:37:47.139Z,101326.06
2022-11-29T04:41:04.834Z,101326.06
2022-11-29T04:44:16.698Z,101327.19
2022-11-29T04:47:57.475Z,101326.62
2022-11-29T04:51:15.617Z,101332.81
2022-11-29T04:55:00.726Z,101326.00
2022-11-29T04:58:19.274Z,101331.28
2022-11-29T05:01:56.524Z,101326.78
2022-11-29T05:05:29.447Z,101340.00
2022-11-29T05:08:39.715Z,101333.97
2022-11-29T05:11:58.840Z,101341.03
2022-11-29T05:15:29.453Z,101350.16
2022-11-29T05:19:12.179Z,101345.03
2022-11-29T05:22:39.325Z,101347.12
2022-11-29T05:26:07.840Z,101342.22
2022-11-29T05:29:29.840Z,101338.59
2022-11-29T05:32:56.045Z,101339.81
2022-11-29T05:36:14.015Z,101355.06
2022-11-29T05:39:35.080Z,101348.69
2022-11-29T05:42:56.747Z,101346.53
2022-11-29T05:46:12.855Z,101348.81
2022-11-29T05:49:35.263Z,101346.88
2022-11-29T05:53:23.458Z,101352.56
2022-11-29T05:56:34.682Z,101351.38
2022-11-29T05:59:39.025Z,101347.84
2022-11-29T06:02:54.408Z,101355.31
2022-11-29T06:06:07.640Z,101362.63
2022-11-29T06:09:29.359Z,101360.44
2022-11-29T06:12:37.866Z,101365.56
2022-11-29T06:16:16.584Z,101362.22
2022-11-29T06:19:58.215Z,101365.34
2022-11-29T06:23:29.367Z,101372.28
2022-11-29T06:26:46.758Z,101371.50
2022-11-29T06:30:13.564Z,101372.28
2022-11-29T06:33:36.606Z,101370.25
2022-11-29T06:36:48.930Z,101375.38
2022-11-29T06:39:52.212Z,101376.91
2022-11-29T06:42:55.868Z,101383.97
2022-11-29T06:46:02.713Z,101388.97
2022-11-29T06:49:30.690Z,101390.13
2022-11-29T06:53:00.645Z,101387.25
2022-11-29T06:56:25.429Z,101398.53
2022-11-29T06:59:49.023Z,101393.69
2022-11-29T07:03:24.682Z,101397.28
2022-11-29T07:06:29.777Z,101398.94
2022-11-29T07:09:35.636Z,101389.31
2022-11-29T07:12:40.625Z,101395.12
2022-11-29T07:16:04.711Z,101394.09
2022-11-29T07:19:34.723Z,101397.31
2022-11-29T07:23:08.853Z,101392.69
2022-11-29T07:26:22.705Z,101401.41
2022-11-29T07:29:47.865Z,101401.06
2022-11-29T07:33:09.354Z,101395.03
2022-11-29T07:36:50.123Z,101393.34
2022-11-29T07:39:57.629Z,101394.78
2022-11-29T07:43:38.868Z,101395.69
2022-11-29T07:46:44.074Z,101400.41
2022-11-29T07:49:48.079Z,101400.56
2022-11-29T07:52:54.078Z,101400.81
2022-11-29T07:55:58.648Z,101402.38
2022-11-29T07:59:03.006Z,101397.38
2022-11-29T08:02:11.647Z,101402.66
2022-11-29T08:05:17.956Z,101386.84
2022-11-29T08:08:20.943Z,101393.53
2022-11-29T08:11:27.589Z,101398.56
2022-11-29T08:14:34.038Z,101394.22
2022-11-29T08:17:39.354Z,101406.91
2022-11-29T08:20:43.765Z,101402.41
2022-11-29T08:23:56.902Z,101397.16
2022-11-29T08:27:01.058Z,101398.69
2022-11-29T08:30:06.585Z,101391.91
2022-11-29T08:33:10.749Z,101395.87
2022-11-29T08:36:17.628Z,101396.41
2022-11-29T08:39:28.155Z,101386.37
2022-11-29T08:42:32.048Z,101391.00
2022-11-29T08:45:34.884Z,101387.34
2022-11-29T08:48:39.045Z,101395.94
2022-11-29T08:51:42.747Z,101386.56
2022-11-29T08:54:46.807Z,101378.09
2022-11-29T08:57:51.330Z,101389.03
2022-11-29T09:00:54.469Z,101387.38
2022-11-29T09:04:00.599Z,101382.09
2022-11-29T09:07:03.745Z,101380.44
2022-11-29T09:10:09.129Z,101388.66
2022-11-29T09:13:13.360Z,101381.84
2022-11-29T09:16:26.631Z,101375.94
2022-11-29T09:19:34.396Z,101386.47
2022-11-29T09:22:39.303Z,101380.56
2022-11-29T09:25:48.815Z,101387.50
2022-11-29T09:28:52.638Z,101385.19
2022-11-29T09:31:58.217Z,101380.56
2022-11-29T09:35:01.864Z,101386.09
2022-11-29T09:38:12.619Z,101376.28
2022-11-29T09:41:32.350Z,101388.91
2022-11-29T09:45:02.794Z,101380.25
2022-11-29T09:48:47.284Z,101377.31
2022-11-29T09:51:54.752Z,101374.50
2022-11-29T09:55:25.752Z,101368.69
2022-11-29T09:58:43.909Z,101374.25
2022-11-29T10:01:51.514Z,101361.75
2022-11-29T10:05:10.519Z,101371.91
2022-11-29T10:08:25.861Z,101372.72
2022-11-29T10:11:41.707Z,101368.06
2022-11-29T10:14:59.543Z,101356.25
2022-11-29T10:18:28.910Z,101348.38
2022-11-29T10:21:38.412Z,101344.81
2022-11-29T10:24:44.878Z,101351.09
2022-11-29T10:27:48.912Z,101336.56
2022-11-29T10:31:01.998Z,101336.53
2022-11-29T10:34:15.276Z,101340.00
2022-11-29T10:37:21.645Z,101340.25
2022-11-29T10:40:35.281Z,101345.00
2022-11-29T10:43:45.639Z,101342.75
2022-11-29T10:46:51.032Z,101344.38
2022-11-29T10:49:54.558Z,101333.06
2022-11-29T10:53:13.853Z,101336.13
2022-11-29T10:56:29.708Z,101337.75
2022-11-29T10:59:36.885Z,101330.91
2022-11-29T11:02:41.663Z,101331.56
2022-11-29T11:05:57.882Z,101333.06
2022-11-29T11:09:35.636Z,101324.38
2022-11-29T11:12:39.597Z,101327.53
2022-11-29T11:15:43.746Z,101331.66
2022-11-29T11:18:48.184Z,101324.13
2022-11-29T11:21:52.654Z,101336.13
2022-11-29T11:25:04.476Z,101321.44
2022-11-29T11:28:30.502Z,101327.06
2022-11-29T11:31:38.724Z,101323.53
2022-11-29T11:34:52.234Z,101324.78
2022-11-29T11:37:58.796Z,101329.28
2022-11-29T11:41:48.774Z,101325.28
2022-11-29T11:44:53.730Z,101327.03
2022-11-29T11:47:59.937Z,101319.13
2022-11-29T11:51:06.592Z,101323.78
2022-11-29T11:54:15.441Z,101331.03
2022-11-29T11:57:21.522Z,101329.72
2022-11-29T12:01:03.025Z,101320.72
2022-11-29T12:04:38.004Z,101327.91
2022-11-29T12:08:16.596Z,101325.09
2022-11-29T12:11:20.795Z,101319.16
2022-11-29T12:14:34.389Z,101318.56
2022-11-29T12:17:49.822Z,101308.97
2022-11-29T12:21:38.769Z,101319.88
2022-11-29T12:24:55.489Z,101323.41
2022-11-29T12:27:58.534Z,101313.91
2022-11-29T12:31:55.538Z,101313.47
2022-11-29T12:35:13.617Z,101311.19
2022-11-29T12:38:26.533Z,101296.09
2022-11-29T12:42:07.020Z,101290.16
2022-11-29T12:45:37.184Z,101296.81
2022-11-29T12:48:42.107Z,101300.00
2022-11-29T12:52:05.922Z,101290.25
2022-11-29T12:55:30.188Z,101286.56
2022-11-29T12:59:14.166Z,101287.00
2022-11-29T13:02:49.075Z,101296.66
2022-11-29T13:06:17.374Z,101300.41
2022-11-29T13:10:03.858Z,101285.22
2022-11-29T13:13:38.980Z,101294.78
2022-11-29T13:17:05.151Z,101298.78
2022-11-29T13:20:28.993Z,101309.34
2022-11-29T13:23:45.880Z,101297.34
2022-11-29T13:27:07.256Z,101297.22
2022-11-29T13:30:18.544Z,101304.66
2022-11-29T13:33:41.847Z,101302.22
2022-11-29T13:37:15.086Z,101298.22
2022-11-29T13:40:32.650Z,101302.22
2022-11-29T13:43:46.142Z,101312.53
2022-11-29T13:46:52.727Z,101309.06
2022-11-29T13:50:05.517Z,101314.25
2022-11-29T13:53:21.985Z,101308.75
2022-11-29T13:56:48.924Z,101319.28
2022-11-29T13:59:55.691Z,101313.53
2022-11-29T14:03:21.810Z,101313.78
2022-11-29T14:06:37.439Z,101308.09
2022-11-29T14:09:59.364Z,101308.88
2022-11-29T14:13:07.986Z,101300.91
2022-11-29T14:16:26.749Z,101301.31
2022-11-29T14:19:38.555Z,101303.12
2022-11-29T14:23:12.665Z,101298.00
2022-11-29T14:26:29.160Z,101299.03
2022-11-29T14:29:50.486Z,101307.19
2022-11-29T14:33:36.082Z,101307.72
2022-11-29T14:37:10.531Z,101296.94
2022-11-29T14:40:40.034Z,101304.19
2022-11-29T14:43:44.497Z,101312.09
2022-11-29T14:46:51.552Z,101309.41
2022-11-29T14:50:08.503Z,101311.75
2022-11-29T14:53:36.498Z,101317.06
2022-11-29T14:56:48.569Z,101317.84
2022-11-29T15:00:08.546Z,101304.31
2022-11-29T15:03:55.484Z,101306.91
2022-11-29T16:05:41.463Z,101312.00
2022-11-29T16:08:53.693Z,101321.25
2022-11-29T16:12:02.484Z,101325.50
2022-11-29T16:15:31.523Z,101321.78
2022-11-29T16:18:47.494Z,101324.25
2022-11-29T16:22:12.009Z,101326.94
2022-11-29T16:25:27.196Z,101324.38
2022-11-29T16:28:41.580Z,101326.94
2022-11-29T16:31:51.006Z,101335.69
2022-11-29T16:34:57.553Z,101333.75
2022-11-29T16:38:10.624Z,101339.03
2022-11-29T16:41:34.823Z,101345.72
2022-11-29T16:44:49.483Z,101352.56
2022-11-29T16:48:00.561Z,101350.38
2022-11-29T16:51:21.574Z,101356.81
2022-11-29T16:54:33.703Z,101358.09
2022-11-29T16:57:48.518Z,101357.59
2022-11-29T17:01:01.591Z,101365.97
2022-11-29T17:04:23.525Z,101372.78
2022-11-29T17:07:43.510Z,101366.63
2022-11-29T17:10:52.713Z,101363.28
2022-11-29T17:14:03.482Z,101360.72
2022-11-29T17:17:21.455Z,101358.66
2022-11-29T17:20:28.881Z,101358.25
2022-11-29T17:23:45.437Z,101361.22
2022-11-29T17:27:04.527Z,101366.38
2022-11-29T17:30:12.413Z,101374.50
2022-11-29T17:33:21.691Z,101365.34
2022-11-29T17:36:32.416Z,101369.59
2022-11-29T17:39:39.541Z,101371.28
2022-11-29T17:42:51.555Z,101367.56
2022-11-29T17:45:55.771Z,101370.00
2022-11-29T17:49:01.323Z,101365.87
2022-11-29T17:52:06.105Z,101369.19
2022-11-29T17:55:20.480Z,101360.34
2022-11-29T17:58:24.423Z,101363.56
2022-11-29T18:01:38.754Z,101356.22
2022-11-29T18:04:47.478Z,101355.03
2022-11-29T18:08:07.605Z,101364.56
2022-11-29T18:11:22.620Z,101361.44
2022-11-29T18:14:36.521Z,101355.16
2022-11-29T18:17:40.608Z,101363.50
2022-11-29T18:20:50.469Z,101358.59
2022-11-29T18:23:55.759Z,101371.06
2022-11-29T18:27:00.881Z,101370.78
2022-11-29T18:30:14.975Z,101377.09
2022-11-29T18:33:23.472Z,101375.19
2022-11-29T18:36:37.889Z,101371.31
2022-11-29T18:39:53.798Z,101374.91
2022-11-29T18:42:58.670Z,101370.91
2022-11-29T18:46:24.121Z,101375.25
2022-11-29T18:49:35.755Z,101373.84
2022-11-29T18:52:58.385Z,101367.75
2022-11-29T18:56:17.567Z,101363.72
2022-11-29T18:59:29.442Z,101369.53
2022-11-29T19:02:40.820Z,101366.84
2022-11-29T19:06:00.477Z,101365.16
2022-11-29T19:09:16.517Z,101366.84
2022-11-29T19:12:22.588Z,101372.22
2022-11-29T19:15:46.442Z,101368.22
2022-11-29T19:18:54.554Z,101373.50
2022-11-29T19:22:07.405Z,101367.44
2022-11-29T19:25:17.577Z,101362.53
2022-11-29T19:28:44.438Z,101378.72
2022-11-29T19:31:53.618Z,101369.19
2022-11-29T19:35:07.061Z,101373.16
2022-11-29T19:38:16.797Z,101370.44
2022-11-29T19:41:29.920Z,101372.37
2022-11-29T19:45:14.905Z,101374.94
2022-11-29T19:48:13.481Z,101375.06
2022-11-29T19:51:18.086Z,101371.94
2022-11-29T19:54:33.908Z,101367.69
2022-11-29T19:58:02.770Z,101362.41
2022-11-29T20:01:40.755Z,101365.00
2022-11-29T20:05:00.716Z,101365.13
2022-11-29T20:08:18.365Z,101359.97
2022-11-29T20:11:33.599Z,101358.16
2022-11-29T20:14:40.509Z,101359.06
2022-11-29T20:17:53.401Z,101356.47
2022-11-29T20:21:06.783Z,101358.41
2022-11-29T20:24:19.746Z,101357.38
2022-11-29T20:27:37.345Z,101354.25
2022-11-29T20:30:48.295Z,101358.91
2022-11-29T20:33:59.634Z,101355.28
2022-11-29T20:37:36.504Z,101358.75
2022-11-29T20:41:02.313Z,101354.00
2022-11-29T20:44:17.617Z,101354.91
2022-11-29T20:47:25.473Z,101353.75
2022-11-29T20:50:39.551Z,101353.34
2022-11-29T20:53:48.846Z,101355.78
2022-11-29T20:56:59.700Z,101357.34
2022-11-29T21:00:08.615Z,101351.66
2022-11-29T21:03:17.135Z,101352.56
2022-11-29T21:06:27.182Z,101352.56
2022-11-29T21:09:33.418Z,101348.97
2022-11-29T21:12:40.463Z,101349.97
2022-11-29T21:15:45.741Z,101350.75
2022-11-29T21:18:54.969Z,101356.03
2022-11-29T21:22:48.988Z,101348.41
2022-11-29T21:26:23.461Z,101346.84
2022-11-29T21:29:43.354Z,101349.44
2022-11-29T21:32:46.893Z,101344.28
2022-11-29T21:35:58.210Z,101352.25
2022-11-29T21:39:09.658Z,101345.28
2022-11-29T21:42:13.817Z,101359.66
2022-11-29T21:45:20.602Z,101364.03
2022-11-29T21:48:36.280Z,101366.03
2022-11-29T21:51:40.754Z,101370.06
2022-11-29T21:54:46.594Z,101348.41
2022-11-29T21:57:51.110Z,101350.09
2022-11-29T22:00:54.477Z,101343.03
2022-11-29T22:03:57.842Z,101348.19
2022-11-29T22:07:03.456Z,101352.44
2022-11-29T22:10:13.346Z,101339.44
2022-11-29T22:13:16.261Z,101338.66
2022-11-29T22:16:20.492Z,101344.47
2022-11-29T22:19:30.337Z,101355.78
2022-11-29T22:22:33.551Z,101352.31
2022-11-29T22:25:36.873Z,101356.81
2022-11-29T22:28:39.988Z,101350.62
2022-11-29T22:31:45.221Z,101354.91
2022-11-29T22:34:48.377Z,101351.53
2022-11-29T22:37:51.733Z,101350.75
2022-11-29T22:40:59.180Z,101348.84
2022-11-29T22:44:05.502Z,101348.97
2022-11-29T22:47:13.852Z,101347.16
2022-11-29T22:50:24.761Z,101345.25
2022-11-29T22:53:28.794Z,101350.53
2022-11-29T22:56:33.708Z,101339.03
2022-11-29T22:59:38.857Z,101331.47
2022-11-29T23:02:48.004Z,101326.16
2022-11-29T23:05:51.931Z,101327.09
2022-11-29T23:08:58.840Z,101322.69
2022-11-29T23:12:02.284Z,101316.78
2022-11-29T23:15:05.363Z,101321.16
2022-11-29T23:18:08.383Z,101317.81
2022-11-29T23:21:15.635Z,101323.84
2022-11-29T23:24:18.886Z,101322.19
2022-11-29T23:27:22.599Z,101329.25
2022-11-29T23:30:25.672Z,101324.09
2022-11-29T23:33:29.070Z,101315.47
2022-11-29T23:36:32.198Z,101313.25
2022-11-29T23:39:35.074Z,101320.84
2022-11-29T23:42:43.598Z,101316.16
2022-11-29T23:45:49.816Z,101309.75
2022-11-29T23:48:53.057Z,101305.38
2022-11-29T23:51:55.891Z,101309.41
2022-11-29T23:54:59.918Z,101311.75
2022-11-29T23:58:03.423Z,101304.91
